sensor_id;sensor_type;location;lat;lon;timestamp;P1;durP1;ratioP1;P2;durP2;ratioP2
69979;SDS011;57318;56.232;43.944;2023-05-10T00:01:51;13.73;;;8.00;;
69979;SDS011;57318;56.232;43.944;2023-05-10T00:04:17;12.07;;;7.10;;
69979;SDS011;57318;56.232;43.944;2023-05-10T00:06:43;14.97;;;8.60;;
69979;SDS011;57318;56.232;43.944;2023-05-10T00:09:08;18.73;;;9.97;;
69979;SDS011;57318;56.232;43.944;2023-05-10T00:11:34;17.53;;;9.87;;
69979;SDS011;57318;56.232;43.944;2023-05-10T00:14:00;12.90;;;7.77;;
69979;SDS011;57318;56.232;43.944;2023-05-10T00:16:26;11.07;;;7.10;;
69979;SDS011;57318;56.232;43.944;2023-05-10T00:18:51;9.17;;;5.57;;
69979;SDS011;57318;56.232;43.944;2023-05-10T00:21:17;12.57;;;6.13;;
69979;SDS011;57318;56.232;43.944;2023-05-10T00:23:43;8.97;;;5.53;;
69979;SDS011;57318;56.232;43.944;2023-05-10T00:26:08;9.17;;;5.07;;
69979;SDS011;57318;56.232;43.944;2023-05-10T00:28:34;8.30;;;4.60;;
69979;SDS011;57318;56.232;43.944;2023-05-10T00:31:00;7.73;;;4.83;;
69979;SDS011;57318;56.232;43.944;2023-05-10T00:33:25;9.37;;;4.70;;
69979;SDS011;57318;56.232;43.944;2023-05-10T00:35:51;5.83;;;3.50;;
69979;SDS011;57318;56.232;43.944;2023-05-10T00:38:17;6.90;;;4.03;;
69979;SDS011;57318;56.232;43.944;2023-05-10T00:40:43;6.27;;;3.80;;
69979;SDS011;57318;56.232;43.944;2023-05-10T00:43:09;6.37;;;4.13;;
69979;SDS011;57318;56.232;43.944;2023-05-10T00:45:34;4.60;;;3.23;;
69979;SDS011;57318;56.232;43.944;2023-05-10T00:48:02;6.93;;;4.10;;
69979;SDS011;57318;56.232;43.944;2023-05-10T00:50:29;4.95;;;2.47;;
69979;SDS011;57318;56.232;43.944;2023-05-10T00:52:56;5.00;;;3.25;;
69979;SDS011;57318;56.232;43.944;2023-05-10T00:55:23;4.35;;;2.90;;
69979;SDS011;57318;56.232;43.944;2023-05-10T00:57:49;7.13;;;3.70;;
69979;SDS011;57318;56.232;43.944;2023-05-10T01:00:15;5.93;;;3.80;;
69979;SDS011;57318;56.232;43.944;2023-05-10T01:02:44;7.18;;;3.55;;
69979;SDS011;57318;56.232;43.944;2023-05-10T01:05:11;4.00;;;2.42;;
69979;SDS011;57318;56.232;43.944;2023-05-10T01:07:37;2.80;;;2.30;;
69979;SDS011;57318;56.232;43.944;2023-05-10T01:10:07;3.00;;;2.08;;
69979;SDS011;57318;56.232;43.944;2023-05-10T01:12:37;3.33;;;2.10;;
69979;SDS011;57318;56.232;43.944;2023-05-10T01:15:05;5.60;;;2.20;;
69979;SDS011;57318;56.232;43.944;2023-05-10T01:17:33;2.10;;;1.70;;
69979;SDS011;57318;56.232;43.944;2023-05-10T01:20:01;4.40;;;2.00;;
69979;SDS011;57318;56.232;43.944;2023-05-10T01:22:49;3.95;;;2.83;;
69979;SDS011;57318;56.232;43.944;2023-05-10T01:34:08;5.43;;;3.10;;
69979;SDS011;57318;56.232;43.944;2023-05-10T01:42:09;19.70;;;17.65;;
69979;SDS011;57318;56.232;43.944;2023-05-10T01:44:38;30.83;;;27.63;;
69979;SDS011;57318;56.232;43.944;2023-05-10T01:47:12;15.23;;;13.07;;
69979;SDS011;57318;56.232;43.944;2023-05-10T01:49:47;10.40;;;9.02;;
69979;SDS011;57318;56.232;43.944;2023-05-10T01:52:16;10.52;;;8.88;;
69979;SDS011;57318;56.232;43.944;2023-05-10T01:54:48;20.20;;;17.27;;
69979;SDS011;57318;56.232;43.944;2023-05-10T01:57:19;33.20;;;29.67;;
69979;SDS011;57318;56.232;43.944;2023-05-10T01:59:47;18.65;;;16.63;;
69979;SDS011;57318;56.232;43.944;2023-05-10T02:02:16;10.23;;;8.80;;
69979;SDS011;57318;56.232;43.944;2023-05-10T02:04:45;14.25;;;12.85;;
69979;SDS011;57318;56.232;43.944;2023-05-10T02:07:12;11.35;;;10.18;;
69979;SDS011;57318;56.232;43.944;2023-05-10T02:09:39;13.60;;;12.40;;
69979;SDS011;57318;56.232;43.944;2023-05-10T02:12:09;19.33;;;17.63;;
69979;SDS011;57318;56.232;43.944;2023-05-10T02:14:37;15.30;;;13.90;;
69979;SDS011;57318;56.232;43.944;2023-05-10T02:17:06;9.93;;;9.13;;
69979;SDS011;57318;56.232;43.944;2023-05-10T02:19:34;8.60;;;7.78;;
69979;SDS011;57318;56.232;43.944;2023-05-10T02:22:22;12.85;;;11.65;;
69979;SDS011;57318;56.232;43.944;2023-05-10T02:24:50;11.18;;;10.07;;
69979;SDS011;57318;56.232;43.944;2023-05-10T02:27:17;6.78;;;5.80;;
69979;SDS011;57318;56.232;43.944;2023-05-10T02:29:45;6.53;;;4.22;;
69979;SDS011;57318;56.232;43.944;2023-05-10T02:32:12;6.10;;;4.18;;
69979;SDS011;57318;56.232;43.944;2023-05-10T02:34:40;4.22;;;2.63;;
69979;SDS011;57318;56.232;43.944;2023-05-10T02:37:07;5.82;;;3.65;;
69979;SDS011;57318;56.232;43.944;2023-05-10T02:39:33;8.90;;;7.60;;
69979;SDS011;57318;56.232;43.944;2023-05-10T02:42:00;6.38;;;3.65;;
69979;SDS011;57318;56.232;43.944;2023-05-10T02:44:27;8.73;;;3.60;;
69979;SDS011;57318;56.232;43.944;2023-05-10T02:46:56;3.40;;;3.00;;
69979;SDS011;57318;56.232;43.944;2023-05-10T02:49:22;5.20;;;2.60;;
69979;SDS011;57318;56.232;43.944;2023-05-10T02:51:49;2.07;;;1.70;;
69979;SDS011;57318;56.232;43.944;2023-05-10T02:54:22;2.42;;;1.88;;
69979;SDS011;57318;56.232;43.944;2023-05-10T02:56:59;2.22;;;1.60;;
69979;SDS011;57318;56.232;43.944;2023-05-10T02:59:29;3.83;;;2.50;;
69979;SDS011;57318;56.232;43.944;2023-05-10T03:01:54;5.37;;;3.37;;
69979;SDS011;57318;56.232;43.944;2023-05-10T03:04:20;2.43;;;2.20;;
69979;SDS011;57318;56.232;43.944;2023-05-10T03:06:46;2.10;;;1.60;;
69979;SDS011;57318;56.232;43.944;2023-05-10T03:09:12;2.88;;;2.03;;
69979;SDS011;57318;56.232;43.944;2023-05-10T03:17:04;5.80;;;1.90;;
69979;SDS011;57318;56.232;43.944;2023-05-10T03:22:36;2.50;;;1.80;;
69979;SDS011;57318;56.232;43.944;2023-05-10T03:25:06;2.58;;;1.73;;
69979;SDS011;57318;56.232;43.944;2023-05-10T03:27:37;1.67;;;1.58;;
69979;SDS011;57318;56.232;43.944;2023-05-10T03:30:07;3.75;;;2.00;;
69979;SDS011;57318;56.232;43.944;2023-05-10T03:32:36;3.70;;;1.75;;
69979;SDS011;57318;56.232;43.944;2023-05-10T03:35:06;3.20;;;2.20;;
69979;SDS011;57318;56.232;43.944;2023-05-10T03:37:35;2.83;;;2.10;;
69979;SDS011;57318;56.232;43.944;2023-05-10T03:40:01;3.27;;;2.00;;
69979;SDS011;57318;56.232;43.944;2023-05-10T03:42:28;6.40;;;2.20;;
69979;SDS011;57318;56.232;43.944;2023-05-10T03:44:54;7.87;;;2.77;;
69979;SDS011;57318;56.232;43.944;2023-05-10T03:47:20;6.40;;;3.63;;
69979;SDS011;57318;56.232;43.944;2023-05-10T03:49:46;9.10;;;3.63;;
69979;SDS011;57318;56.232;43.944;2023-05-10T03:52:12;7.73;;;4.63;;
69979;SDS011;57318;56.232;43.944;2023-05-10T03:54:37;10.53;;;4.83;;
69979;SDS011;57318;56.232;43.944;2023-05-10T03:57:03;7.17;;;4.37;;
69979;SDS011;57318;56.232;43.944;2023-05-10T03:59:29;7.78;;;3.92;;
69979;SDS011;57318;56.232;43.944;2023-05-10T04:01:55;8.50;;;5.10;;
69979;SDS011;57318;56.232;43.944;2023-05-10T04:04:21;10.73;;;5.73;;
69979;SDS011;57318;56.232;43.944;2023-05-10T04:06:48;11.65;;;6.55;;
69979;SDS011;57318;56.232;43.944;2023-05-10T04:09:14;12.95;;;6.38;;
69979;SDS011;57318;56.232;43.944;2023-05-10T04:11:40;12.88;;;6.60;;
69979;SDS011;57318;56.232;43.944;2023-05-10T04:14:06;11.47;;;5.20;;
69979;SDS011;57318;56.232;43.944;2023-05-10T04:16:31;6.80;;;4.27;;
69979;SDS011;57318;56.232;43.944;2023-05-10T04:18:57;13.73;;;4.40;;
69979;SDS011;57318;56.232;43.944;2023-05-10T04:21:23;6.23;;;3.07;;
69979;SDS011;57318;56.232;43.944;2023-05-10T04:23:49;5.13;;;2.60;;
69979;SDS011;57318;56.232;43.944;2023-05-10T04:26:15;4.60;;;2.80;;
69979;SDS011;57318;56.232;43.944;2023-05-10T04:28:40;11.18;;;3.90;;
69979;SDS011;57318;56.232;43.944;2023-05-10T04:31:07;9.23;;;3.30;;
69979;SDS011;57318;56.232;43.944;2023-05-10T04:33:34;9.73;;;5.18;;
69979;SDS011;57318;56.232;43.944;2023-05-10T04:38:27;13.02;;;5.80;;
69979;SDS011;57318;56.232;43.944;2023-05-10T04:40:54;10.07;;;5.50;;
69979;SDS011;57318;56.232;43.944;2023-05-10T04:43:19;13.83;;;5.40;;
69979;SDS011;57318;56.232;43.944;2023-05-10T04:45:45;15.23;;;6.43;;
69979;SDS011;57318;56.232;43.944;2023-05-10T04:48:11;15.00;;;7.68;;
69979;SDS011;57318;56.232;43.944;2023-05-10T04:50:37;10.43;;;5.20;;
69979;SDS011;57318;56.232;43.944;2023-05-10T04:55:30;16.33;;;9.75;;
69979;SDS011;57318;56.232;43.944;2023-05-10T04:57:56;15.60;;;7.90;;
69979;SDS011;57318;56.232;43.944;2023-05-10T05:00:23;20.95;;;7.35;;
69979;SDS011;57318;56.232;43.944;2023-05-10T05:02:49;15.40;;;6.00;;
69979;SDS011;57318;56.232;43.944;2023-05-10T05:05:15;15.07;;;7.70;;
69979;SDS011;57318;56.232;43.944;2023-05-10T05:07:41;18.93;;;7.23;;
69979;SDS011;57318;56.232;43.944;2023-05-10T05:10:07;19.03;;;7.63;;
69979;SDS011;57318;56.232;43.944;2023-05-10T05:12:34;19.08;;;8.27;;
69979;SDS011;57318;56.232;43.944;2023-05-10T05:17:26;22.50;;;8.88;;
69979;SDS011;57318;56.232;43.944;2023-05-10T05:19:52;20.30;;;8.40;;
69979;SDS011;57318;56.232;43.944;2023-05-10T05:22:18;22.50;;;9.27;;
69979;SDS011;57318;56.232;43.944;2023-05-10T05:24:53;24.88;;;11.20;;
69979;SDS011;57318;56.232;43.944;2023-05-10T05:27:23;26.92;;;10.07;;
69979;SDS011;57318;56.232;43.944;2023-05-10T05:29:54;31.23;;;12.25;;
69979;SDS011;57318;56.232;43.944;2023-05-10T05:32:20;33.80;;;11.10;;
69979;SDS011;57318;56.232;43.944;2023-05-10T05:34:47;24.90;;;11.05;;
69979;SDS011;57318;56.232;43.944;2023-05-10T05:37:16;24.25;;;9.82;;
69979;SDS011;57318;56.232;43.944;2023-05-10T05:39:43;20.83;;;7.97;;
69979;SDS011;57318;56.232;43.944;2023-05-10T05:42:10;18.55;;;7.15;;
69979;SDS011;57318;56.232;43.944;2023-05-10T05:44:37;23.63;;;7.50;;
69979;SDS011;57318;56.232;43.944;2023-05-10T05:47:02;19.50;;;7.27;;
69979;SDS011;57318;56.232;43.944;2023-05-10T05:49:28;17.47;;;6.57;;
69979;SDS011;57318;56.232;43.944;2023-05-10T05:51:54;19.42;;;6.30;;
69979;SDS011;57318;56.232;43.944;2023-05-10T05:54:23;16.08;;;5.45;;
69979;SDS011;57318;56.232;43.944;2023-05-10T05:56:49;14.27;;;7.27;;
69979;SDS011;57318;56.232;43.944;2023-05-10T05:59:14;15.83;;;7.73;;
69979;SDS011;57318;56.232;43.944;2023-05-10T06:01:40;18.40;;;7.80;;
69979;SDS011;57318;56.232;43.944;2023-05-10T06:04:06;11.47;;;6.53;;
69979;SDS011;57318;56.232;43.944;2023-05-10T06:06:31;10.83;;;5.37;;
69979;SDS011;57318;56.232;43.944;2023-05-10T06:08:57;13.77;;;4.83;;
69979;SDS011;57318;56.232;43.944;2023-05-10T06:11:23;14.53;;;5.00;;
69979;SDS011;57318;56.232;43.944;2023-05-10T06:13:49;10.98;;;3.55;;
69979;SDS011;57318;56.232;43.944;2023-05-10T06:16:15;5.75;;;3.45;;
69979;SDS011;57318;56.232;43.944;2023-05-10T06:18:41;9.93;;;4.20;;
69979;SDS011;57318;56.232;43.944;2023-05-10T06:21:06;9.17;;;4.47;;
69979;SDS011;57318;56.232;43.944;2023-05-10T06:23:32;12.60;;;4.47;;
69979;SDS011;57318;56.232;43.944;2023-05-10T06:25:58;8.20;;;3.50;;
69979;SDS011;57318;56.232;43.944;2023-05-10T06:28:23;8.60;;;3.53;;
69979;SDS011;57318;56.232;43.944;2023-05-10T06:30:49;9.33;;;2.93;;
69979;SDS011;57318;56.232;43.944;2023-05-10T06:33:15;6.85;;;2.70;;
69979;SDS011;57318;56.232;43.944;2023-05-10T06:35:41;5.27;;;2.60;;
69979;SDS011;57318;56.232;43.944;2023-05-10T06:38:07;11.63;;;3.57;;
69979;SDS011;57318;56.232;43.944;2023-05-10T06:40:32;8.70;;;3.10;;
69979;SDS011;57318;56.232;43.944;2023-05-10T06:42:58;5.95;;;3.28;;
69979;SDS011;57318;56.232;43.944;2023-05-10T06:45:24;10.52;;;3.35;;
69979;SDS011;57318;56.232;43.944;2023-05-10T06:47:50;7.30;;;3.08;;
69979;SDS011;57318;56.232;43.944;2023-05-10T06:50:16;10.23;;;3.35;;
69979;SDS011;57318;56.232;43.944;2023-05-10T06:52:41;9.05;;;2.95;;
69979;SDS011;57318;56.232;43.944;2023-05-10T06:57:33;5.78;;;2.83;;
69979;SDS011;57318;56.232;43.944;2023-05-10T07:02:25;5.28;;;3.00;;
69979;SDS011;57318;56.232;43.944;2023-05-10T07:04:51;7.47;;;2.90;;
69979;SDS011;57318;56.232;43.944;2023-05-10T07:07:17;4.10;;;2.55;;
69979;SDS011;57318;56.232;43.944;2023-05-10T07:09:44;3.65;;;2.60;;
69979;SDS011;57318;56.232;43.944;2023-05-10T07:12:10;5.72;;;2.60;;
69979;SDS011;57318;56.232;43.944;2023-05-10T07:14:36;4.13;;;2.70;;
69979;SDS011;57318;56.232;43.944;2023-05-10T07:17:02;4.18;;;2.70;;
69979;SDS011;57318;56.232;43.944;2023-05-10T07:19:29;3.88;;;2.60;;
69979;SDS011;57318;56.232;43.944;2023-05-10T07:21:55;4.30;;;3.10;;
69979;SDS011;57318;56.232;43.944;2023-05-10T07:24:20;3.78;;;2.92;;
69979;SDS011;57318;56.232;43.944;2023-05-10T07:26:46;3.70;;;2.60;;
69979;SDS011;57318;56.232;43.944;2023-05-10T07:29:12;2.97;;;2.30;;
69979;SDS011;57318;56.232;43.944;2023-05-10T07:31:37;5.22;;;2.60;;
69979;SDS011;57318;56.232;43.944;2023-05-10T07:34:03;2.80;;;2.47;;
69979;SDS011;57318;56.232;43.944;2023-05-10T07:36:29;2.72;;;2.53;;
69979;SDS011;57318;56.232;43.944;2023-05-10T07:38:55;6.57;;;2.72;;
69979;SDS011;57318;56.232;43.944;2023-05-10T07:41:22;7.00;;;2.60;;
69979;SDS011;57318;56.232;43.944;2023-05-10T07:43:48;3.95;;;2.40;;
69979;SDS011;57318;56.232;43.944;2023-05-10T07:46:15;2.40;;;2.05;;
69979;SDS011;57318;56.232;43.944;2023-05-10T07:48:41;3.55;;;2.17;;
69979;SDS011;57318;56.232;43.944;2023-05-10T07:51:06;6.63;;;2.40;;
69979;SDS011;57318;56.232;43.944;2023-05-10T07:53:34;2.47;;;2.28;;
69979;SDS011;57318;56.232;43.944;2023-05-10T07:56:19;3.80;;;2.10;;
69979;SDS011;57318;56.232;43.944;2023-05-10T07:58:46;3.97;;;1.95;;
69979;SDS011;57318;56.232;43.944;2023-05-10T08:01:12;5.63;;;2.65;;
69979;SDS011;57318;56.232;43.944;2023-05-10T08:03:37;3.65;;;2.33;;
69979;SDS011;57318;56.232;43.944;2023-05-10T08:06:03;8.82;;;2.95;;
69979;SDS011;57318;56.232;43.944;2023-05-10T08:08:29;4.38;;;2.33;;
69979;SDS011;57318;56.232;43.944;2023-05-10T08:10:55;4.28;;;3.38;;
69979;SDS011;57318;56.232;43.944;2023-05-10T08:13:21;2.40;;;2.20;;
69979;SDS011;57318;56.232;43.944;2023-05-10T08:15:47;10.05;;;2.42;;
69979;SDS011;57318;56.232;43.944;2023-05-10T08:18:13;2.97;;;2.38;;
69979;SDS011;57318;56.232;43.944;2023-05-10T08:20:38;2.70;;;2.20;;
69979;SDS011;57318;56.232;43.944;2023-05-10T08:23:05;3.10;;;2.30;;
69979;SDS011;57318;56.232;43.944;2023-05-10T08:25:31;4.05;;;2.38;;
69979;SDS011;57318;56.232;43.944;2023-05-10T08:27:57;3.72;;;2.60;;
69979;SDS011;57318;56.232;43.944;2023-05-10T08:30:22;4.53;;;2.72;;
69979;SDS011;57318;56.232;43.944;2023-05-10T08:32:48;4.05;;;2.38;;
69979;SDS011;57318;56.232;43.944;2023-05-10T08:35:15;4.88;;;2.83;;
69979;SDS011;57318;56.232;43.944;2023-05-10T08:37:41;3.60;;;2.75;;
69979;SDS011;57318;56.232;43.944;2023-05-10T08:40:07;3.60;;;2.50;;
69979;SDS011;57318;56.232;43.944;2023-05-10T08:42:36;2.40;;;2.20;;
69979;SDS011;57318;56.232;43.944;2023-05-10T08:45:07;3.53;;;2.50;;
69979;SDS011;57318;56.232;43.944;2023-05-10T08:47:37;3.00;;;2.53;;
69979;SDS011;57318;56.232;43.944;2023-05-10T08:50:04;6.47;;;2.50;;
69979;SDS011;57318;56.232;43.944;2023-05-10T08:52:32;3.00;;;2.35;;
69979;SDS011;57318;56.232;43.944;2023-05-10T08:55:02;5.22;;;2.65;;
69979;SDS011;57318;56.232;43.944;2023-05-10T08:57:29;5.22;;;2.67;;
69979;SDS011;57318;56.232;43.944;2023-05-10T08:59:54;7.68;;;2.50;;
69979;SDS011;57318;56.232;43.944;2023-05-10T09:02:20;4.65;;;2.50;;
69979;SDS011;57318;56.232;43.944;2023-05-10T09:04:47;2.53;;;2.25;;
69979;SDS011;57318;56.232;43.944;2023-05-10T09:07:14;3.65;;;2.42;;
69979;SDS011;57318;56.232;43.944;2023-05-10T09:09:40;3.70;;;2.30;;
69979;SDS011;57318;56.232;43.944;2023-05-10T09:12:05;4.95;;;2.25;;
69979;SDS011;57318;56.232;43.944;2023-05-10T09:14:36;2.22;;;2.05;;
69979;SDS011;57318;56.232;43.944;2023-05-10T09:17:03;4.60;;;2.30;;
69979;SDS011;57318;56.232;43.944;2023-05-10T09:19:29;6.22;;;2.70;;
69979;SDS011;57318;56.232;43.944;2023-05-10T09:21:55;5.72;;;2.40;;
69979;SDS011;57318;56.232;43.944;2023-05-10T09:24:24;3.05;;;2.20;;
69979;SDS011;57318;56.232;43.944;2023-05-10T09:26:52;3.85;;;2.60;;
69979;SDS011;57318;56.232;43.944;2023-05-10T09:29:18;4.60;;;3.00;;
69979;SDS011;57318;56.232;43.944;2023-05-10T09:34:16;3.35;;;2.38;;
69979;SDS011;57318;56.232;43.944;2023-05-10T09:36:53;2.53;;;2.33;;
69979;SDS011;57318;56.232;43.944;2023-05-10T09:39:19;3.90;;;2.50;;
69979;SDS011;57318;56.232;43.944;2023-05-10T09:41:46;5.88;;;2.90;;
69979;SDS011;57318;56.232;43.944;2023-05-10T09:44:14;2.70;;;2.50;;
69979;SDS011;57318;56.232;43.944;2023-05-10T09:46:43;3.33;;;2.70;;
69979;SDS011;57318;56.232;43.944;2023-05-10T09:49:14;7.70;;;2.67;;
69979;SDS011;57318;56.232;43.944;2023-05-10T09:51:40;5.95;;;2.60;;
69979;SDS011;57318;56.232;43.944;2023-05-10T09:54:10;6.05;;;2.55;;
69979;SDS011;57318;56.232;43.944;2023-05-10T09:56:36;4.47;;;2.58;;
69979;SDS011;57318;56.232;43.944;2023-05-10T09:59:07;3.83;;;2.40;;
69979;SDS011;57318;56.232;43.944;2023-05-10T10:01:34;2.80;;;2.60;;
69979;SDS011;57318;56.232;43.944;2023-05-10T10:04:04;3.03;;;2.40;;
69979;SDS011;57318;56.232;43.944;2023-05-10T10:06:37;3.17;;;2.72;;
69979;SDS011;57318;56.232;43.944;2023-05-10T10:09:06;4.10;;;2.30;;
69979;SDS011;57318;56.232;43.944;2023-05-10T10:11:36;3.10;;;2.00;;
69979;SDS011;57318;56.232;43.944;2023-05-10T10:14:03;2.67;;;2.47;;
69979;SDS011;57318;56.232;43.944;2023-05-10T10:16:30;2.80;;;2.60;;
69979;SDS011;57318;56.232;43.944;2023-05-10T10:18:57;6.55;;;4.57;;
69979;SDS011;57318;56.232;43.944;2023-05-10T10:21:23;3.55;;;2.80;;
69979;SDS011;57318;56.232;43.944;2023-05-10T10:23:49;4.20;;;2.45;;
69979;SDS011;57318;56.232;43.944;2023-05-10T10:26:17;2.85;;;2.33;;
69979;SDS011;57318;56.232;43.944;2023-05-10T10:34:26;3.33;;;2.50;;
69979;SDS011;57318;56.232;43.944;2023-05-10T10:36:54;5.15;;;2.60;;
69979;SDS011;57318;56.232;43.944;2023-05-10T10:39:21;3.88;;;2.63;;
69979;SDS011;57318;56.232;43.944;2023-05-10T10:41:54;2.78;;;2.55;;
69979;SDS011;57318;56.232;43.944;2023-05-10T10:49:49;2.60;;;2.40;;
69979;SDS011;57318;56.232;43.944;2023-05-10T11:00:30;4.68;;;2.22;;
69979;SDS011;57318;56.232;43.944;2023-05-10T11:05:38;2.22;;;2.13;;
69979;SDS011;57318;56.232;43.944;2023-05-10T11:08:16;2.78;;;2.40;;
69979;SDS011;57318;56.232;43.944;2023-05-10T11:10:54;2.60;;;2.38;;
69979;SDS011;57318;56.232;43.944;2023-05-10T11:18:59;5.05;;;2.80;;
69979;SDS011;57318;56.232;43.944;2023-05-10T11:21:30;2.63;;;2.03;;
69979;SDS011;57318;56.232;43.944;2023-05-10T11:23:57;3.83;;;2.15;;
69979;SDS011;57318;56.232;43.944;2023-05-10T11:26:31;5.03;;;2.60;;
69979;SDS011;57318;56.232;43.944;2023-05-10T11:28:59;4.88;;;2.70;;
69979;SDS011;57318;56.232;43.944;2023-05-10T11:31:27;3.03;;;2.40;;
69979;SDS011;57318;56.232;43.944;2023-05-10T11:33:54;3.05;;;2.33;;
69979;SDS011;57318;56.232;43.944;2023-05-10T11:36:26;2.58;;;2.38;;
69979;SDS011;57318;56.232;43.944;2023-05-10T11:38:53;2.65;;;2.33;;
69979;SDS011;57318;56.232;43.944;2023-05-10T11:41:20;4.90;;;2.50;;
69979;SDS011;57318;56.232;43.944;2023-05-10T11:43:48;4.15;;;2.75;;
69979;SDS011;57318;56.232;43.944;2023-05-10T11:46:16;5.55;;;2.63;;
69979;SDS011;57318;56.232;43.944;2023-05-10T11:48:45;3.67;;;2.30;;
69979;SDS011;57318;56.232;43.944;2023-05-10T11:51:14;2.60;;;2.40;;
69979;SDS011;57318;56.232;43.944;2023-05-10T11:53:40;2.72;;;2.33;;
69979;SDS011;57318;56.232;43.944;2023-05-10T11:56:09;2.40;;;2.20;;
69979;SDS011;57318;56.232;43.944;2023-05-10T11:58:36;3.75;;;2.38;;
69979;SDS011;57318;56.232;43.944;2023-05-10T12:01:04;4.30;;;2.63;;
69979;SDS011;57318;56.232;43.944;2023-05-10T12:03:31;4.25;;;3.40;;
69979;SDS011;57318;56.232;43.944;2023-05-10T12:05:57;3.30;;;2.55;;
69979;SDS011;57318;56.232;43.944;2023-05-10T12:08:24;3.35;;;2.40;;
69979;SDS011;57318;56.232;43.944;2023-05-10T12:10:51;2.55;;;2.15;;
69979;SDS011;57318;56.232;43.944;2023-05-10T12:13:19;2.78;;;1.90;;
69979;SDS011;57318;56.232;43.944;2023-05-10T12:15:46;7.43;;;2.05;;
69979;SDS011;57318;56.232;43.944;2023-05-10T12:18:12;2.72;;;1.80;;
69979;SDS011;57318;56.232;43.944;2023-05-10T12:20:39;3.55;;;1.98;;
69979;SDS011;57318;56.232;43.944;2023-05-10T12:23:08;4.47;;;2.30;;
69979;SDS011;57318;56.232;43.944;2023-05-10T12:25:36;4.43;;;2.00;;
69979;SDS011;57318;56.232;43.944;2023-05-10T12:28:04;3.50;;;2.35;;
69979;SDS011;57318;56.232;43.944;2023-05-10T12:30:32;3.08;;;2.70;;
69979;SDS011;57318;56.232;43.944;2023-05-10T12:33:02;4.63;;;2.90;;
69979;SDS011;57318;56.232;43.944;2023-05-10T12:35:49;2.88;;;2.53;;
69979;SDS011;57318;56.232;43.944;2023-05-10T12:38:33;6.30;;;2.70;;
69979;SDS011;57318;56.232;43.944;2023-05-10T12:41:04;4.15;;;2.50;;
69979;SDS011;57318;56.232;43.944;2023-05-10T12:43:34;5.55;;;2.40;;
69979;SDS011;57318;56.232;43.944;2023-05-10T12:46:07;7.93;;;2.80;;
69979;SDS011;57318;56.232;43.944;2023-05-10T12:48:34;3.70;;;2.40;;
69979;SDS011;57318;56.232;43.944;2023-05-10T12:51:01;3.22;;;2.10;;
69979;SDS011;57318;56.232;43.944;2023-05-10T12:53:28;4.63;;;2.28;;
69979;SDS011;57318;56.232;43.944;2023-05-10T12:55:54;2.83;;;2.00;;
69979;SDS011;57318;56.232;43.944;2023-05-10T12:58:19;2.58;;;1.95;;
69979;SDS011;57318;56.232;43.944;2023-05-10T13:00:45;3.15;;;2.35;;
69979;SDS011;57318;56.232;43.944;2023-05-10T13:03:11;9.30;;;2.45;;
69979;SDS011;57318;56.232;43.944;2023-05-10T13:05:37;4.22;;;2.40;;
69979;SDS011;57318;56.232;43.944;2023-05-10T13:08:03;6.72;;;2.40;;
69979;SDS011;57318;56.232;43.944;2023-05-10T13:10:30;6.30;;;2.25;;
69979;SDS011;57318;56.232;43.944;2023-05-10T13:12:57;4.78;;;2.22;;
69979;SDS011;57318;56.232;43.944;2023-05-10T13:15:23;5.28;;;2.10;;
69979;SDS011;57318;56.232;43.944;2023-05-10T13:20:15;8.98;;;3.08;;
69979;SDS011;57318;56.232;43.944;2023-05-10T13:22:43;2.72;;;2.00;;
69979;SDS011;57318;56.232;43.944;2023-05-10T13:25:10;3.42;;;2.20;;
69979;SDS011;57318;56.232;43.944;2023-05-10T13:30:02;4.45;;;2.28;;
69979;SDS011;57318;56.232;43.944;2023-05-10T13:32:32;4.65;;;2.70;;
69979;SDS011;57318;56.232;43.944;2023-05-10T13:34:58;11.00;;;7.50;;
69979;SDS011;57318;56.232;43.944;2023-05-10T13:37:24;11.80;;;4.18;;
69979;SDS011;57318;56.232;43.944;2023-05-10T13:39:50;2.08;;;1.88;;
69979;SDS011;57318;56.232;43.944;2023-05-10T13:42:17;4.00;;;2.42;;
69979;SDS011;57318;56.232;43.944;2023-05-10T13:44:43;2.35;;;2.10;;
69979;SDS011;57318;56.232;43.944;2023-05-10T13:47:09;3.15;;;2.17;;
69979;SDS011;57318;56.232;43.944;2023-05-10T13:49:36;3.40;;;2.22;;
69979;SDS011;57318;56.232;43.944;2023-05-10T13:52:02;2.92;;;1.80;;
69979;SDS011;57318;56.232;43.944;2023-05-10T13:54:32;6.22;;;2.10;;
69979;SDS011;57318;56.232;43.944;2023-05-10T13:56:59;5.85;;;2.38;;
69979;SDS011;57318;56.232;43.944;2023-05-10T13:59:25;4.65;;;1.90;;
69979;SDS011;57318;56.232;43.944;2023-05-10T14:01:51;6.47;;;2.72;;
69979;SDS011;57318;56.232;43.944;2023-05-10T14:04:17;5.38;;;2.50;;
69979;SDS011;57318;56.232;43.944;2023-05-10T14:06:42;4.38;;;2.00;;
69979;SDS011;57318;56.232;43.944;2023-05-10T14:09:08;6.88;;;1.98;;
69979;SDS011;57318;56.232;43.944;2023-05-10T14:11:34;7.40;;;2.45;;
69979;SDS011;57318;56.232;43.944;2023-05-10T14:14:00;2.88;;;2.10;;
69979;SDS011;57318;56.232;43.944;2023-05-10T14:16:26;10.63;;;2.20;;
69979;SDS011;57318;56.232;43.944;2023-05-10T14:21:18;7.20;;;2.20;;
69979;SDS011;57318;56.232;43.944;2023-05-10T14:23:43;5.45;;;2.10;;
69979;SDS011;57318;56.232;43.944;2023-05-10T14:26:09;4.13;;;2.17;;
69979;SDS011;57318;56.232;43.944;2023-05-10T14:28:35;2.72;;;1.88;;
69979;SDS011;57318;56.232;43.944;2023-05-10T14:31:01;2.85;;;2.10;;
69979;SDS011;57318;56.232;43.944;2023-05-10T14:33:27;4.78;;;1.98;;
69979;SDS011;57318;56.232;43.944;2023-05-10T14:35:53;6.47;;;2.35;;
69979;SDS011;57318;56.232;43.944;2023-05-10T14:38:21;3.42;;;2.20;;
69979;SDS011;57318;56.232;43.944;2023-05-10T14:40:47;3.28;;;2.00;;
69979;SDS011;57318;56.232;43.944;2023-05-10T14:43:13;3.20;;;1.88;;
69979;SDS011;57318;56.232;43.944;2023-05-10T14:45:39;2.10;;;2.00;;
69979;SDS011;57318;56.232;43.944;2023-05-10T14:48:05;2.22;;;2.13;;
69979;SDS011;57318;56.232;43.944;2023-05-10T14:50:31;3.58;;;2.60;;
69979;SDS011;57318;56.232;43.944;2023-05-10T14:52:57;4.80;;;3.10;;
69979;SDS011;57318;56.232;43.944;2023-05-10T14:55:24;5.13;;;2.00;;
69979;SDS011;57318;56.232;43.944;2023-05-10T14:57:49;5.53;;;2.22;;
69979;SDS011;57318;56.232;43.944;2023-05-10T15:00:16;12.27;;;2.78;;
69979;SDS011;57318;56.232;43.944;2023-05-10T15:02:42;3.42;;;2.28;;
69979;SDS011;57318;56.232;43.944;2023-05-10T15:05:08;3.05;;;1.92;;
69979;SDS011;57318;56.232;43.944;2023-05-10T15:07:33;3.67;;;3.03;;
69979;SDS011;57318;56.232;43.944;2023-05-10T15:09:59;6.35;;;2.22;;
69979;SDS011;57318;56.232;43.944;2023-05-10T15:12:25;3.35;;;2.03;;
69979;SDS011;57318;56.232;43.944;2023-05-10T15:14:51;5.40;;;2.13;;
69979;SDS011;57318;56.232;43.944;2023-05-10T15:17:16;2.30;;;1.80;;
69979;SDS011;57318;56.232;43.944;2023-05-10T15:19:42;2.15;;;1.95;;
69979;SDS011;57318;56.232;43.944;2023-05-10T15:22:08;5.93;;;2.10;;
69979;SDS011;57318;56.232;43.944;2023-05-10T15:24:34;8.55;;;2.20;;
69979;SDS011;57318;56.232;43.944;2023-05-10T15:26:59;2.37;;;2.10;;
69979;SDS011;57318;56.232;43.944;2023-05-10T15:29:25;4.43;;;1.85;;
69979;SDS011;57318;56.232;43.944;2023-05-10T15:31:51;5.35;;;2.20;;
69979;SDS011;57318;56.232;43.944;2023-05-10T15:34:17;5.75;;;2.28;;
69979;SDS011;57318;56.232;43.944;2023-05-10T15:36:44;4.57;;;2.30;;
69979;SDS011;57318;56.232;43.944;2023-05-10T15:39:10;5.30;;;2.15;;
69979;SDS011;57318;56.232;43.944;2023-05-10T15:41:37;4.22;;;2.20;;
69979;SDS011;57318;56.232;43.944;2023-05-10T15:44:03;17.77;;;3.00;;